< < Back
Terminal Aerodrome Forecast


Current Version              Previous Versions:   1  2  3  4  5  6  7  8  9  

Terminal Aerodrome Forecast

533
FTUS42 KTAE 040531
TAFABY
TAF
KABY 040531Z 0406/0506 00000KT P6SM SCT250
     FM041500 33006KT P6SM SCT050 BKN250=

Latest METAR

040
SAUS70 KWBC 041200 RRE
MTRABY
METAR KABY 041153Z AUTO 00000KT 5SM BR CLR 23/22 A3001 RMK AO2 SLP158
T02280217 10244 20228 53013


USA.gov is the U.S. government's official web portal to all federal, state and local government web resources and services.